createdAt,value
2023-05-21T00:00:14.031Z,117.42
2023-05-21T00:01:14.073Z,118.60
2023-05-21T00:02:14.137Z,116.37
2023-05-21T00:03:14.376Z,120.06
2023-05-21T00:04:14.317Z,122.94
2023-05-21T00:05:14.936Z,121.69
2023-05-21T00:06:14.425Z,123.17
2023-05-21T00:07:14.433Z,124.60
2023-05-21T00:08:14.466Z,122.51
2023-05-21T00:09:14.555Z,123.61
2023-05-21T00:10:14.642Z,121.59
2023-05-21T00:11:14.668Z,124.11
2023-05-21T00:12:14.727Z,132.85
2023-05-21T00:13:14.805Z,144.39
2023-05-21T00:14:14.865Z,152.39
2023-05-21T00:15:14.931Z,157.31
2023-05-21T00:16:16.949Z,162.01
2023-05-21T00:17:15.032Z,165.35
2023-05-21T00:18:15.107Z,172.95
2023-05-21T00:19:15.196Z,175.77
2023-05-21T00:20:15.238Z,179.38
2023-05-21T00:21:15.281Z,179.02
2023-05-21T00:22:15.338Z,184.63
2023-05-21T00:23:15.387Z,188.28
2023-05-21T00:24:15.529Z,189.04
2023-05-21T00:25:15.609Z,191.32
2023-05-21T00:26:15.542Z,194.04
2023-05-21T00:27:15.656Z,194.34
2023-05-21T00:28:15.647Z,194.42
2023-05-21T00:29:15.697Z,198.43
2023-05-21T00:30:15.704Z,199.37
2023-05-21T00:31:15.785Z,197.28
2023-05-21T00:32:15.813Z,197.44
2023-05-21T00:33:15.777Z,197.23
2023-05-21T00:34:15.827Z,199.12
2023-05-21T00:35:15.887Z,197.97
2023-05-21T00:36:15.902Z,198.49
2023-05-21T00:37:15.914Z,199.58
2023-05-21T00:38:15.972Z,199.23
2023-05-21T00:39:15.975Z,198.84
2023-05-21T00:40:15.968Z,199.24
2023-05-21T00:41:15.973Z,197.65
2023-05-21T00:42:16.006Z,196.20
2023-05-21T00:43:15.996Z,194.06
2023-05-21T00:44:16.000Z,193.29
2023-05-21T00:45:16.007Z,193.70
2023-05-21T00:46:16.083Z,191.92
2023-05-21T00:47:16.022Z,190.08
2023-05-21T00:48:16.040Z,188.85
2023-05-21T00:49:16.015Z,191.03
2023-05-21T00:50:15.993Z,191.28
2023-05-21T00:51:16.065Z,191.30
2023-05-21T00:52:16.018Z,191.75
2023-05-21T00:53:15.982Z,190.87
2023-05-21T00:54:16.000Z,190.17
2023-05-21T00:55:16.015Z,189.86
2023-05-21T00:56:16.017Z,193.02
2023-05-21T00:57:16.015Z,191.78
2023-05-21T00:58:15.993Z,197.14
2023-05-21T00:59:15.998Z,199.53
2023-05-21T01:00:16.011Z,198.19
2023-05-21T01:01:16.014Z,199.37
2023-05-21T01:02:15.984Z,199.98
2023-05-21T01:03:16.099Z,198.39
2023-05-21T01:04:15.958Z,200.00
2023-05-21T01:05:15.957Z,199.87
2023-05-21T01:06:15.956Z,198.90
2023-05-21T01:07:15.962Z,199.55
2023-05-21T01:08:15.957Z,200.00
2023-05-21T01:09:15.963Z,198.75
2023-05-21T01:10:15.985Z,200.00
2023-05-21T01:11:15.946Z,198.38
2023-05-21T01:12:15.938Z,199.35
2023-05-21T01:13:15.956Z,198.74
2023-05-21T01:14:15.962Z,198.42
2023-05-21T01:15:15.982Z,199.13
2023-05-21T01:16:15.949Z,198.98
2023-05-21T01:17:16.446Z,198.18
2023-05-21T01:18:16.075Z,199.33
2023-05-21T01:19:16.047Z,198.79
2023-05-21T01:20:15.921Z,200.00
2023-05-21T01:21:15.938Z,198.67
2023-05-21T01:22:15.961Z,200.00
2023-05-21T01:23:15.927Z,199.47
2023-05-21T01:24:15.960Z,197.01
2023-05-21T01:25:15.942Z,197.94
2023-05-21T01:26:16.168Z,199.67
2023-05-21T01:27:15.942Z,199.16
2023-05-21T01:28:15.957Z,200.00
2023-05-21T01:29:15.964Z,198.27
2023-05-21T01:30:15.924Z,196.35
2023-05-21T01:31:15.941Z,197.98
2023-05-21T01:32:15.955Z,198.02
2023-05-21T01:33:16.040Z,196.31
2023-05-21T01:34:15.983Z,197.15
2023-05-21T01:35:15.918Z,197.95
2023-05-21T01:36:16.017Z,195.46
2023-05-21T01:37:15.999Z,196.28
2023-05-21T01:38:15.972Z,196.26
2023-05-21T01:39:16.007Z,196.25
2023-05-21T01:40:15.889Z,195.67
2023-05-21T01:41:15.920Z,195.04
2023-05-21T01:42:16.024Z,193.04
2023-05-21T01:43:15.888Z,190.59
2023-05-21T01:44:15.902Z,192.63
2023-05-21T01:45:16.037Z,193.23
2023-05-21T01:46:15.921Z,190.82
2023-05-21T01:47:15.904Z,189.18
2023-05-21T01:48:15.909Z,186.48
2023-05-21T01:49:15.948Z,186.86
2023-05-21T01:50:15.998Z,188.02
2023-05-21T01:51:15.938Z,187.30
2023-05-21T01:52:15.956Z,185.54
2023-05-21T01:53:15.965Z,187.13
2023-05-21T01:54:15.987Z,186.02
2023-05-21T01:55:15.953Z,188.18
2023-05-21T01:56:15.960Z,187.85
2023-05-21T01:57:16.094Z,187.60
2023-05-21T01:58:15.994Z,190.88
2023-05-21T01:59:15.973Z,190.86
2023-05-21T02:00:16.030Z,191.83
2023-05-21T02:01:16.013Z,191.13
2023-05-21T02:02:16.199Z,193.71
2023-05-21T02:03:16.258Z,194.60
2023-05-21T02:04:16.063Z,195.93
2023-05-21T02:05:16.073Z,199.03
2023-05-21T02:06:16.206Z,199.71
2023-05-21T02:07:16.193Z,198.79
2023-05-21T02:08:16.217Z,199.29
2023-05-21T02:09:16.116Z,199.39
2023-05-21T02:10:16.201Z,199.80
2023-05-21T02:11:16.293Z,198.55
2023-05-21T02:12:16.155Z,198.22
2023-05-21T02:13:16.168Z,196.93
2023-05-21T02:14:16.157Z,199.07
2023-05-21T02:15:16.196Z,199.37
2023-05-21T02:16:16.261Z,198.32
2023-05-21T02:17:16.204Z,198.19
2023-05-21T02:18:16.736Z,199.99
2023-05-21T02:19:16.326Z,198.42
2023-05-21T02:20:16.320Z,200.05
2023-05-21T02:21:16.254Z,197.91
2023-05-21T02:22:16.276Z,198.23
2023-05-21T02:23:16.320Z,197.12
2023-05-21T02:24:16.279Z,195.25
2023-05-21T02:25:16.333Z,195.19
2023-05-21T02:26:16.328Z,193.83
2023-05-21T02:27:16.332Z,192.56
2023-05-21T02:28:16.369Z,192.28
2023-05-21T02:29:16.377Z,192.44
2023-05-21T02:30:16.402Z,193.54
2023-05-21T02:31:16.414Z,192.15
2023-05-21T02:32:16.428Z,191.24
2023-05-21T02:33:16.480Z,190.93
2023-05-21T02:34:16.517Z,191.49
2023-05-21T02:35:16.501Z,193.19
2023-05-21T02:36:16.516Z,194.10
2023-05-21T02:37:16.525Z,193.33
2023-05-21T02:38:16.561Z,194.24
2023-05-21T02:39:16.562Z,193.81
2023-05-21T02:40:16.595Z,190.37
2023-05-21T02:41:16.630Z,190.54
2023-05-21T02:42:16.613Z,190.16
2023-05-21T02:43:16.761Z,188.33
2023-05-21T02:44:16.683Z,186.59
2023-05-21T02:45:16.677Z,186.97
2023-05-21T02:46:16.779Z,186.87
2023-05-21T02:47:16.749Z,186.69
2023-05-21T02:48:16.752Z,187.00
2023-05-21T02:49:16.768Z,186.27
2023-05-21T02:50:16.798Z,185.20
2023-05-21T02:51:16.765Z,184.11
2023-05-21T02:52:16.808Z,184.01
2023-05-21T02:53:16.846Z,182.87
2023-05-21T02:54:16.851Z,180.55
2023-05-21T02:55:16.868Z,181.76
2023-05-21T02:56:16.841Z,180.63
2023-05-21T02:57:16.856Z,179.41
2023-05-21T02:58:16.923Z,180.53
2023-05-21T02:59:16.928Z,180.11
2023-05-21T03:00:16.928Z,181.92
2023-05-21T03:01:17.057Z,182.39
2023-05-21T03:02:17.004Z,178.63
2023-05-21T03:03:17.164Z,177.84
2023-05-21T03:04:16.977Z,176.61
2023-05-21T03:05:17.019Z,173.78
2023-05-21T03:06:17.012Z,172.83
2023-05-21T03:07:17.038Z,173.27
2023-05-21T03:08:17.047Z,168.72
2023-05-21T03:09:17.087Z,170.64
2023-05-21T03:10:17.106Z,170.25
2023-05-21T03:11:17.131Z,167.77
2023-05-21T03:12:17.121Z,166.99
2023-05-21T03:13:17.198Z,164.91
2023-05-21T03:14:17.168Z,166.02
2023-05-21T03:15:17.190Z,164.74
2023-05-21T03:16:17.246Z,160.97
2023-05-21T03:17:17.264Z,158.99
2023-05-21T03:18:17.250Z,155.53
2023-05-21T03:19:17.316Z,157.13
2023-05-21T03:20:17.301Z,157.04
2023-05-21T03:21:17.267Z,156.90
2023-05-21T03:22:17.296Z,155.30
2023-05-21T03:23:17.325Z,155.42
2023-05-21T03:24:17.356Z,153.19
2023-05-21T03:25:17.420Z,157.55
2023-05-21T03:26:17.411Z,159.65
2023-05-21T03:27:17.416Z,163.78
2023-05-21T03:28:17.443Z,166.71
2023-05-21T03:29:17.500Z,168.57
2023-05-21T03:30:17.532Z,165.92
2023-05-21T03:31:17.521Z,164.15
2023-05-21T03:32:17.635Z,162.86
2023-05-21T03:33:17.557Z,162.09
2023-05-21T03:34:17.561Z,157.64
2023-05-21T03:35:17.620Z,160.38
2023-05-21T03:36:17.619Z,159.11
2023-05-21T03:37:17.649Z,158.39
2023-05-21T03:38:17.653Z,158.81
2023-05-21T03:39:17.682Z,159.90
2023-05-21T03:40:17.719Z,160.88
2023-05-21T03:41:17.726Z,159.64
2023-05-21T03:42:17.744Z,159.71
2023-05-21T03:43:17.776Z,159.15
2023-05-21T03:44:17.807Z,159.48
2023-05-21T03:45:17.861Z,158.36
2023-05-21T03:46:17.858Z,160.06
2023-05-21T03:47:17.883Z,160.15
2023-05-21T03:48:17.916Z,158.29
2023-05-21T03:49:17.949Z,157.34
2023-05-21T03:50:17.997Z,159.20
2023-05-21T03:51:18.043Z,156.91
2023-05-21T03:52:18.054Z,157.52
2023-05-21T03:53:18.124Z,158.73
2023-05-21T03:54:18.069Z,159.91
2023-05-21T03:55:18.141Z,159.10
2023-05-21T03:56:18.125Z,157.14
2023-05-21T03:57:18.169Z,158.88
2023-05-21T03:58:18.210Z,159.14
2023-05-21T03:59:18.207Z,161.29
2023-05-21T04:00:18.274Z,163.11
2023-05-21T04:01:18.308Z,163.90
2023-05-21T04:02:18.454Z,165.86
2023-05-21T04:03:18.596Z,165.01
2023-05-21T04:04:18.452Z,166.34
2023-05-21T04:05:18.431Z,165.61
2023-05-21T04:06:18.436Z,169.08
2023-05-21T04:07:18.497Z,168.34
2023-05-21T04:08:18.536Z,168.47
2023-05-21T04:09:18.543Z,169.91
2023-05-21T04:10:18.595Z,173.17
2023-05-21T04:11:18.624Z,176.05
2023-05-21T04:12:18.684Z,175.29
2023-05-21T04:13:18.720Z,178.14
2023-05-21T04:14:18.752Z,178.32
2023-05-21T04:15:18.770Z,180.21
2023-05-21T04:16:18.879Z,182.72
2023-05-21T04:17:18.866Z,185.51
2023-05-21T04:18:18.917Z,185.10
2023-05-21T04:19:19.195Z,189.03
2023-05-21T04:20:18.992Z,191.65
2023-05-21T04:21:19.046Z,193.22
2023-05-21T04:22:19.064Z,193.61
2023-05-21T04:23:19.113Z,196.12
2023-05-21T04:24:19.154Z,198.17
2023-05-21T04:25:19.242Z,200.00
2023-05-21T04:26:19.238Z,199.85
2023-05-21T04:27:19.304Z,200.00
2023-05-21T04:28:19.343Z,199.54
2023-05-21T04:29:19.364Z,198.70
2023-05-21T04:30:19.397Z,199.04
2023-05-21T04:31:19.455Z,199.06
2023-05-21T04:32:19.494Z,198.13
2023-05-21T04:33:19.549Z,199.05
2023-05-21T04:34:19.589Z,199.31
2023-05-21T04:35:19.640Z,197.12
2023-05-21T04:36:19.636Z,196.62
2023-05-21T04:37:19.680Z,197.08
2023-05-21T04:38:19.786Z,196.35
2023-05-21T04:39:19.739Z,194.41
2023-05-21T04:40:19.795Z,196.04
2023-05-21T04:41:19.803Z,196.01
2023-05-21T04:42:19.855Z,195.47
2023-05-21T04:43:19.915Z,195.68
2023-05-21T04:44:19.953Z,194.92
2023-05-21T04:45:19.964Z,194.51
2023-05-21T04:46:20.151Z,193.92
2023-05-21T04:47:20.215Z,191.05
2023-05-21T04:48:20.089Z,189.56
2023-05-21T04:49:20.136Z,188.57
2023-05-21T04:50:20.156Z,186.40
2023-05-21T04:51:20.212Z,187.01
2023-05-21T04:52:20.274Z,186.48
2023-05-21T04:53:20.289Z,185.06
2023-05-21T04:54:20.308Z,187.41
2023-05-21T04:55:20.352Z,186.79
2023-05-21T04:56:20.381Z,186.23
2023-05-21T04:57:20.479Z,186.97
2023-05-21T04:58:20.493Z,186.91
2023-05-21T04:59:20.516Z,185.89
2023-05-21T05:00:20.568Z,185.52
2023-05-21T05:01:20.638Z,183.76
2023-05-21T05:02:20.647Z,184.72
2023-05-21T05:03:20.731Z,185.52
2023-05-21T05:04:20.708Z,184.93
2023-05-21T05:05:20.772Z,183.52
2023-05-21T05:06:20.802Z,184.06
2023-05-21T05:07:20.805Z,187.00
2023-05-21T05:08:20.832Z,185.95
2023-05-21T05:09:20.902Z,187.26
2023-05-21T05:10:20.901Z,186.22
2023-05-21T05:11:20.959Z,185.29
2023-05-21T05:12:21.010Z,186.78
2023-05-21T05:13:21.014Z,186.34
2023-05-21T05:14:21.074Z,188.10
2023-05-21T05:15:21.087Z,188.46
2023-05-21T05:16:21.163Z,188.80
2023-05-21T05:17:21.131Z,188.08
2023-05-21T05:18:21.142Z,187.77
2023-05-21T05:19:21.292Z,188.91
2023-05-21T05:20:21.226Z,191.66
2023-05-21T05:21:21.266Z,192.54
2023-05-21T05:22:21.288Z,193.00
2023-05-21T05:23:21.319Z,193.60
2023-05-21T05:24:21.351Z,194.08
2023-05-21T05:25:21.385Z,193.33
2023-05-21T05:26:21.998Z,192.54
2023-05-21T05:27:21.434Z,192.47
2023-05-21T05:28:21.452Z,191.88
2023-05-21T05:29:21.481Z,191.84
2023-05-21T05:30:21.536Z,192.88
2023-05-21T05:31:21.625Z,193.67
2023-05-21T05:32:21.601Z,193.08
2023-05-21T05:33:21.590Z,193.35
2023-05-21T05:34:21.634Z,195.76
2023-05-21T05:35:21.637Z,197.93
2023-05-21T05:36:21.683Z,196.44
2023-05-21T05:37:21.667Z,197.35
2023-05-21T05:38:21.700Z,196.73
2023-05-21T05:39:21.754Z,196.70
2023-05-21T05:40:21.803Z,196.74
2023-05-21T05:41:21.776Z,197.25
2023-05-21T05:42:21.779Z,195.38
2023-05-21T05:43:21.813Z,195.35
2023-05-21T05:44:21.833Z,194.89
2023-05-21T05:45:21.864Z,194.73
2023-05-21T05:46:21.951Z,194.43
2023-05-21T05:47:21.941Z,192.83
2023-05-21T05:48:21.927Z,190.30
2023-05-21T05:49:21.957Z,190.42
2023-05-21T05:50:21.970Z,188.48
2023-05-21T05:51:22.005Z,186.58
2023-05-21T05:52:22.007Z,187.57
2023-05-21T05:53:22.073Z,185.28
2023-05-21T05:54:22.058Z,184.91
2023-05-21T05:55:22.106Z,184.12
2023-05-21T05:56:22.168Z,183.24
2023-05-21T05:57:22.141Z,182.05
2023-05-21T05:58:22.182Z,183.95
2023-05-21T05:59:22.218Z,180.05
2023-05-21T06:00:22.255Z,181.13
2023-05-21T06:01:22.276Z,176.69
2023-05-21T06:02:22.378Z,175.09
2023-05-21T06:03:22.367Z,174.40
2023-05-21T06:04:22.339Z,173.19
2023-05-21T06:05:22.395Z,171.09
2023-05-21T06:06:22.451Z,170.44
2023-05-21T06:07:22.427Z,169.04
2023-05-21T06:08:22.474Z,168.34
2023-05-21T06:09:22.473Z,165.67
2023-05-21T06:10:22.499Z,165.94
2023-05-21T06:11:22.520Z,166.20
2023-05-21T06:12:22.513Z,166.99
2023-05-21T06:13:22.578Z,166.06
2023-05-21T06:14:22.568Z,163.90
2023-05-21T06:15:22.611Z,161.44
2023-05-21T06:16:22.671Z,160.23
2023-05-21T06:17:23.635Z,159.99
2023-05-21T06:18:22.661Z,160.57
2023-05-21T06:19:22.716Z,159.33
2023-05-21T06:20:22.710Z,159.99
2023-05-21T06:21:22.718Z,161.69
2023-05-21T06:22:24.902Z,163.55
2023-05-21T06:23:22.733Z,164.25
2023-05-21T06:24:22.729Z,166.15
2023-05-21T06:25:22.723Z,166.80
2023-05-21T06:26:22.723Z,165.75
2023-05-21T06:27:22.681Z,164.11
2023-05-21T06:28:22.689Z,164.24
2023-05-21T06:29:22.708Z,164.90
2023-05-21T06:30:22.714Z,161.36
2023-05-21T06:31:22.675Z,160.13
2023-05-21T06:32:22.746Z,160.73
2023-05-21T06:33:22.840Z,159.38
2023-05-21T06:34:22.674Z,160.35
2023-05-21T06:35:22.660Z,162.58
2023-05-21T06:36:22.647Z,162.23
2023-05-21T06:37:23.762Z,164.18
2023-05-21T06:38:22.628Z,163.81
2023-05-21T06:39:22.637Z,160.08
2023-05-21T06:40:22.602Z,157.47
2023-05-21T06:41:22.616Z,156.28
2023-05-21T06:42:22.576Z,155.75
2023-05-21T06:43:22.650Z,154.18
2023-05-21T06:44:22.638Z,152.88
2023-05-21T06:45:22.606Z,153.31
2023-05-21T06:46:22.583Z,151.99
2023-05-21T06:47:22.551Z,153.66
2023-05-21T06:48:22.543Z,150.56
2023-05-21T06:49:22.555Z,148.67
2023-05-21T06:50:22.535Z,149.55
2023-05-21T06:51:22.577Z,149.34
2023-05-21T06:52:22.519Z,151.24
2023-05-21T06:53:22.511Z,152.30
2023-05-21T06:54:22.604Z,151.94
2023-05-21T06:55:22.504Z,154.38
2023-05-21T06:56:22.508Z,155.67
2023-05-21T06:57:22.494Z,156.61
2023-05-21T06:58:22.497Z,154.44
2023-05-21T06:59:22.457Z,153.35
2023-05-21T07:00:22.547Z,151.45
2023-05-21T07:01:22.592Z,149.24
2023-05-21T07:02:22.472Z,146.97
2023-05-21T07:03:22.522Z,146.20
2023-05-21T07:04:22.472Z,147.65
2023-05-21T07:05:22.428Z,147.70
2023-05-21T07:06:22.429Z,148.28
2023-05-21T07:07:22.413Z,152.76
2023-05-21T07:08:22.402Z,151.40
2023-05-21T07:09:22.413Z,150.06
2023-05-21T07:10:22.381Z,150.32
2023-05-21T07:11:22.399Z,148.88
2023-05-21T07:12:22.375Z,147.26
2023-05-21T07:13:22.418Z,150.08
2023-05-21T07:14:22.388Z,147.79
2023-05-21T07:15:22.424Z,149.56
2023-05-21T07:16:22.450Z,153.21
2023-05-21T07:17:22.545Z,153.44
2023-05-21T07:18:22.481Z,148.77
2023-05-21T07:19:22.552Z,150.26
2023-05-21T07:20:22.472Z,150.82
2023-05-21T07:21:22.493Z,154.23
2023-05-21T07:22:22.507Z,153.43
2023-05-21T07:23:22.544Z,153.49
2023-05-21T07:24:23.546Z,158.21
2023-05-21T07:25:22.624Z,161.80
2023-05-21T07:26:22.661Z,160.17
2023-05-21T07:27:25.856Z,166.47
2023-05-21T07:28:22.681Z,167.64
2023-05-21T07:29:22.692Z,165.52
2023-05-21T07:30:22.668Z,170.95
2023-05-21T07:31:22.718Z,182.34
2023-05-21T07:32:22.703Z,198.44
2023-05-21T07:33:22.670Z,195.55
2023-05-21T07:34:22.661Z,186.97
2023-05-21T07:35:22.646Z,184.83
2023-05-21T07:36:22.633Z,194.94
2023-05-21T07:37:22.679Z,198.79
2023-05-21T07:38:22.589Z,199.66
2023-05-21T07:39:22.622Z,199.87
2023-05-21T07:40:22.632Z,195.64
2023-05-21T07:41:22.610Z,191.35
2023-05-21T07:42:22.568Z,187.89
2023-05-21T07:43:22.587Z,185.25
2023-05-21T07:44:22.589Z,190.64
2023-05-21T07:45:22.609Z,200.55
2023-05-21T07:46:22.628Z,201.15
2023-05-21T07:47:22.568Z,200.76
2023-05-21T07:48:22.542Z,199.87
2023-05-21T07:49:22.508Z,198.01
2023-05-21T07:50:22.552Z,194.30
2023-05-21T07:51:22.521Z,187.82
2023-05-21T07:52:22.578Z,188.66
2023-05-21T07:53:22.490Z,187.02
2023-05-21T07:54:22.519Z,189.87
2023-05-21T07:55:22.467Z,192.54
2023-05-21T07:56:22.479Z,195.04
2023-05-21T07:57:22.514Z,196.34
2023-05-21T07:58:22.551Z,193.55
2023-05-21T07:59:22.601Z,195.18
2023-05-21T08:00:22.676Z,194.90
2023-05-21T08:01:44.205Z,50.00
2023-05-21T08:02:44.241Z,50.00
2023-05-21T08:03:44.322Z,50.00
2023-05-21T08:04:44.168Z,50.00
2023-05-21T08:05:44.156Z,50.00
2023-05-21T08:06:44.178Z,50.00
2023-05-21T08:07:44.164Z,50.04
2023-05-21T08:08:44.127Z,50.98
2023-05-21T08:09:44.106Z,50.00
2023-05-21T08:10:44.090Z,50.00
2023-05-21T08:11:44.113Z,50.03
2023-05-21T08:12:44.119Z,50.57
2023-05-21T08:13:44.115Z,50.20
2023-05-21T08:14:44.079Z,51.08
2023-05-21T08:15:44.104Z,51.37
2023-05-21T08:16:44.098Z,52.11
2023-05-21T08:17:44.087Z,50.00
2023-05-21T08:18:44.102Z,50.22
2023-05-21T08:19:44.041Z,50.00
2023-05-21T08:20:44.032Z,50.79
2023-05-21T08:21:44.050Z,55.91
2023-05-21T08:22:44.031Z,59.74
2023-05-21T08:23:44.014Z,58.78
2023-05-21T08:24:43.998Z,62.89
2023-05-21T08:25:44.054Z,60.11
2023-05-21T08:26:44.022Z,68.95
2023-05-21T08:27:43.999Z,70.76
2023-05-21T08:28:43.967Z,72.52
2023-05-21T08:29:43.968Z,75.97
2023-05-21T08:30:43.971Z,75.26
2023-05-21T08:31:44.018Z,76.08
2023-05-21T08:32:44.005Z,72.93
2023-05-21T08:33:43.959Z,66.80
2023-05-21T08:34:43.955Z,68.52
2023-05-21T08:35:43.944Z,70.52
2023-05-21T08:36:43.919Z,70.73
2023-05-21T08:37:43.900Z,67.82
2023-05-21T08:38:43.902Z,58.69
2023-05-21T08:39:43.910Z,57.89
2023-05-21T08:40:43.887Z,52.37
2023-05-21T08:41:43.874Z,51.34
2023-05-21T08:42:43.886Z,50.00
2023-05-21T08:43:43.879Z,52.16
2023-05-21T08:44:43.880Z,54.53
2023-05-21T08:45:43.913Z,57.06
2023-05-21T08:46:43.885Z,61.38
2023-05-21T08:47:43.900Z,69.87
2023-05-21T08:48:43.851Z,67.31
2023-05-21T08:49:43.846Z,58.53
2023-05-21T08:50:43.831Z,55.68
2023-05-21T08:51:43.836Z,63.11
2023-05-21T08:52:43.853Z,70.71
2023-05-21T08:53:43.882Z,79.71
2023-05-21T08:54:43.878Z,82.81
2023-05-21T08:55:43.940Z,88.39
2023-05-21T08:56:43.938Z,92.60
2023-05-21T08:57:43.958Z,90.82
2023-05-21T08:58:43.971Z,93.53
2023-05-21T08:59:43.968Z,96.29
2023-05-21T09:00:43.994Z,94.12
2023-05-21T09:01:44.065Z,88.86
2023-05-21T09:02:44.161Z,86.66
2023-05-21T09:03:44.061Z,80.66
2023-05-21T09:04:44.098Z,73.61
2023-05-21T09:05:44.056Z,75.80
2023-05-21T09:06:44.070Z,71.74
2023-05-21T09:07:44.037Z,61.37
2023-05-21T09:08:44.081Z,49.99
2023-05-21T09:09:44.087Z,53.77
2023-05-21T09:10:44.106Z,60.19
2023-05-21T09:11:44.170Z,73.90
2023-05-21T09:12:44.174Z,78.68
2023-05-21T09:13:44.157Z,83.57
2023-05-21T09:14:44.225Z,79.00
2023-05-21T09:15:44.167Z,73.65
2023-05-21T09:16:44.206Z,50.00
2023-05-21T09:17:44.228Z,50.31
2023-05-21T09:18:44.196Z,50.00
2023-05-21T09:19:44.202Z,50.00
2023-05-21T09:20:44.195Z,50.00
2023-05-21T09:21:44.214Z,49.93
2023-05-21T09:22:44.191Z,47.21
2023-05-21T09:23:44.238Z,50.27
2023-05-21T09:24:44.204Z,49.54
2023-05-21T09:25:44.182Z,50.26
2023-05-21T09:26:44.286Z,50.56
2023-05-21T09:27:44.217Z,54.71
2023-05-21T09:28:44.196Z,59.15
2023-05-21T09:29:44.202Z,62.14
2023-05-21T09:30:44.199Z,57.14
2023-05-21T09:31:44.258Z,57.05
2023-05-21T09:32:44.192Z,56.20
2023-05-21T09:33:44.163Z,54.78
2023-05-21T09:34:44.186Z,50.00
2023-05-21T09:35:44.214Z,50.00
2023-05-21T09:36:44.304Z,50.54
2023-05-21T09:37:44.231Z,52.51
2023-05-21T09:38:44.231Z,50.00
2023-05-21T09:39:44.241Z,50.00
2023-05-21T09:40:44.295Z,60.29
2023-05-21T09:41:44.295Z,71.65
2023-05-21T09:42:44.356Z,69.63
2023-05-21T09:43:44.378Z,45.87
2023-05-21T09:44:44.379Z,50.00
2023-05-21T09:45:44.449Z,51.84
2023-05-21T09:46:44.521Z,59.44
2023-05-21T09:47:44.679Z,50.00
2023-05-21T09:48:44.545Z,51.70
2023-05-21T09:49:44.575Z,50.00
2023-05-21T09:50:44.618Z,53.10
2023-05-21T09:51:44.660Z,63.11
2023-05-21T09:52:44.668Z,80.41
2023-05-21T09:53:44.700Z,72.03
2023-05-21T09:54:44.744Z,63.50
2023-05-21T09:55:44.880Z,52.70
2023-05-21T09:56:44.847Z,50.66
2023-05-21T09:57:44.896Z,50.00
2023-05-21T09:58:44.946Z,49.73
2023-05-21T09:59:45.023Z,50.00
2023-05-21T10:00:45.048Z,47.25
2023-05-21T10:01:45.194Z,49.33
2023-05-21T10:02:45.181Z,50.36
2023-05-21T10:03:45.259Z,50.00
2023-05-21T10:04:45.337Z,50.00
2023-05-21T10:05:45.341Z,51.26
2023-05-21T10:06:45.368Z,53.55
2023-05-21T10:07:45.425Z,50.00
2023-05-21T10:08:45.504Z,50.00
2023-05-21T10:09:45.544Z,50.00
2023-05-21T10:10:45.623Z,51.37
2023-05-21T10:11:45.685Z,50.54
2023-05-21T10:12:45.734Z,50.00
2023-05-21T10:13:45.801Z,50.76
2023-05-21T10:14:45.888Z,52.03
2023-05-21T10:15:46.110Z,59.63
2023-05-21T10:16:46.131Z,67.61
2023-05-21T10:17:46.111Z,66.55
2023-05-21T10:18:46.107Z,72.45
2023-05-21T10:19:46.161Z,77.55
2023-05-21T10:20:46.237Z,71.38
2023-05-21T10:21:46.274Z,72.74
2023-05-21T10:22:46.351Z,70.63
2023-05-21T10:23:46.433Z,68.05
2023-05-21T10:24:46.469Z,72.19
2023-05-21T10:25:46.537Z,70.76
2023-05-21T10:26:46.586Z,73.82
2023-05-21T10:27:46.688Z,77.16
2023-05-21T10:28:46.716Z,84.51
2023-05-21T10:29:46.772Z,93.17
2023-05-21T10:30:46.863Z,97.94
2023-05-21T10:31:46.899Z,103.46
2023-05-21T10:32:47.058Z,110.92
2023-05-21T10:33:47.009Z,107.03
2023-05-21T10:34:47.070Z,97.58
2023-05-21T10:35:47.131Z,82.71
2023-05-21T10:36:47.200Z,80.64
2023-05-21T10:37:47.268Z,74.39
2023-05-21T10:38:47.276Z,76.49
2023-05-21T10:39:47.374Z,74.65
2023-05-21T10:40:47.436Z,66.83
2023-05-21T10:41:47.500Z,63.46
2023-05-21T10:42:47.556Z,58.27
2023-05-21T10:43:47.620Z,57.16
2023-05-21T10:44:47.676Z,49.83
2023-05-21T10:45:47.755Z,50.00
2023-05-21T10:46:47.772Z,50.00
2023-05-21T10:47:47.880Z,50.00
2023-05-21T10:48:47.855Z,54.57
2023-05-21T10:49:47.917Z,52.58
2023-05-21T10:50:47.970Z,56.60
2023-05-21T10:51:48.018Z,57.18
2023-05-21T10:52:48.059Z,53.27
2023-05-21T10:53:48.121Z,53.01
2023-05-21T10:54:48.177Z,60.70
2023-05-21T10:55:48.252Z,73.07
2023-05-21T10:56:48.912Z,68.85
2023-05-21T10:57:48.268Z,72.00
2023-05-21T10:58:48.356Z,73.84
2023-05-21T10:59:48.379Z,75.08
2023-05-21T11:00:48.524Z,76.54
2023-05-21T11:01:48.526Z,77.60
2023-05-21T11:02:48.599Z,71.94
2023-05-21T11:03:48.636Z,76.51
2023-05-21T11:04:48.656Z,69.58
2023-05-21T11:05:48.721Z,67.72
2023-05-21T11:06:48.741Z,68.85
2023-05-21T11:07:48.783Z,67.64
2023-05-21T11:08:48.841Z,56.29
2023-05-21T11:09:48.877Z,58.76
2023-05-21T11:10:48.977Z,54.76
2023-05-21T11:11:49.008Z,50.02
2023-05-21T11:12:49.038Z,55.90
2023-05-21T11:13:49.338Z,55.33
2023-05-21T11:14:49.146Z,50.43
2023-05-21T11:15:49.239Z,50.00
2023-05-21T11:16:49.278Z,51.59
2023-05-21T11:17:49.361Z,51.27
2023-05-21T11:18:49.361Z,49.39
2023-05-21T11:19:49.383Z,55.82
2023-05-21T11:20:49.432Z,60.80
2023-05-21T11:21:49.485Z,61.74
2023-05-21T11:22:49.502Z,56.56
2023-05-21T11:23:49.555Z,55.34
2023-05-21T11:24:50.899Z,50.00
2023-05-21T11:25:49.643Z,52.64
2023-05-21T11:26:49.743Z,58.26
2023-05-21T11:27:49.747Z,58.15
2023-05-21T11:28:49.788Z,66.59
2023-05-21T11:29:49.807Z,75.78
2023-05-21T11:30:49.902Z,79.13
2023-05-21T11:31:49.922Z,77.20
2023-05-21T11:32:50.001Z,88.74
2023-05-21T11:33:50.018Z,99.13
2023-05-21T11:34:50.087Z,102.38
2023-05-21T11:35:50.120Z,103.98
2023-05-21T11:36:50.225Z,117.00
2023-05-21T11:37:50.201Z,120.57
2023-05-21T11:38:50.232Z,126.95
2023-05-21T11:39:50.263Z,131.16
2023-05-21T11:40:50.341Z,130.56
2023-05-21T11:41:50.387Z,131.69
2023-05-21T11:42:50.407Z,124.70
2023-05-21T11:43:50.421Z,132.61
2023-05-21T11:44:50.466Z,144.47
2023-05-21T11:45:50.573Z,146.34
2023-05-21T11:46:50.680Z,149.33
2023-05-21T11:47:50.650Z,146.67
2023-05-21T11:48:50.663Z,153.41
2023-05-21T11:49:50.725Z,154.65
2023-05-21T11:50:50.779Z,159.33
2023-05-21T11:51:50.792Z,162.01
2023-05-21T11:52:50.830Z,155.52
2023-05-21T11:53:50.897Z,155.36
2023-05-21T11:54:50.992Z,161.71
2023-05-21T11:55:50.975Z,180.04
2023-05-21T11:56:51.049Z,194.31
2023-05-21T11:57:51.068Z,200.00
2023-05-21T11:58:51.099Z,200.44
2023-05-21T11:59:51.192Z,200.03
2023-05-21T12:00:51.233Z,199.36
2023-05-21T12:01:51.280Z,200.00
2023-05-21T12:02:51.449Z,193.88
2023-05-21T12:03:51.464Z,187.40
2023-05-21T12:04:51.450Z,184.70
2023-05-21T12:05:51.569Z,193.17
2023-05-21T12:06:51.562Z,198.70
2023-05-21T12:07:51.626Z,200.74
2023-05-21T12:08:51.681Z,200.00
2023-05-21T12:09:51.738Z,193.59
2023-05-21T12:10:51.821Z,187.80
2023-05-21T12:11:51.843Z,185.44
2023-05-21T12:12:55.704Z,184.84
2023-05-21T12:13:51.930Z,185.00
2023-05-21T12:14:51.894Z,186.72
2023-05-21T12:15:51.874Z,192.61
2023-05-21T12:16:51.999Z,203.86
2023-05-21T12:17:51.966Z,215.04
2023-05-21T12:18:51.914Z,206.89
2023-05-21T12:19:51.896Z,200.00
2023-05-21T12:20:51.872Z,195.85
2023-05-21T12:21:51.878Z,196.72
2023-05-21T12:22:51.863Z,200.00
2023-05-21T12:23:51.861Z,199.75
2023-05-21T12:24:51.905Z,195.71
2023-05-21T12:25:51.964Z,194.71
2023-05-21T12:26:52.010Z,198.50
2023-05-21T12:27:52.088Z,200.11
2023-05-21T12:28:52.097Z,199.74
2023-05-21T12:29:52.159Z,200.00
2023-05-21T12:30:52.246Z,199.92
2023-05-21T12:31:52.330Z,199.33
2023-05-21T12:32:52.406Z,200.00
2023-05-21T12:33:52.395Z,199.62
2023-05-21T12:34:52.451Z,197.64
2023-05-21T12:35:52.689Z,199.92